sensor_id;sensor_type;location;lat;lon;timestamp;P1;durP1;ratioP1;P2;durP2;ratioP2
44784;SDS011;30507;53.160;8.210;2024-03-07T00:00:02;2.00;;;1.58;;
44784;SDS011;30507;53.160;8.210;2024-03-07T00:02:29;1.52;;;1.42;;
44784;SDS011;30507;53.160;8.210;2024-03-07T00:04:54;1.53;;;1.43;;
44784;SDS011;30507;53.160;8.210;2024-03-07T00:07:19;1.58;;;1.48;;
44784;SDS011;30507;53.160;8.210;2024-03-07T00:09:46;1.50;;;1.40;;
44784;SDS011;30507;53.160;8.210;2024-03-07T00:12:11;1.48;;;1.38;;
44784;SDS011;30507;53.160;8.210;2024-03-07T00:14:37;1.83;;;1.73;;
44784;SDS011;30507;53.160;8.210;2024-03-07T00:17:02;1.13;;;1.13;;
44784;SDS011;30507;53.160;8.210;2024-03-07T00:19:28;1.38;;;1.25;;
44784;SDS011;30507;53.160;8.210;2024-03-07T00:21:55;2.97;;;1.98;;
44784;SDS011;30507;53.160;8.210;2024-03-07T00:24:20;1.17;;;1.08;;
44784;SDS011;30507;53.160;8.210;2024-03-07T00:26:45;1.77;;;1.67;;
44784;SDS011;30507;53.160;8.210;2024-03-07T00:29:11;1.33;;;1.20;;
44784;SDS011;30507;53.160;8.210;2024-03-07T00:31:36;1.40;;;1.27;;
44784;SDS011;30507;53.160;8.210;2024-03-07T00:34:01;2.40;;;1.70;;
44784;SDS011;30507;53.160;8.210;2024-03-07T00:36:26;1.17;;;1.13;;
44784;SDS011;30507;53.160;8.210;2024-03-07T00:38:52;2.00;;;1.40;;
44784;SDS011;30507;53.160;8.210;2024-03-07T00:41:18;2.58;;;1.27;;
44784;SDS011;30507;53.160;8.210;2024-03-07T00:43:44;1.52;;;1.42;;
44784;SDS011;30507;53.160;8.210;2024-03-07T00:46:09;1.60;;;1.30;;
44784;SDS011;30507;53.160;8.210;2024-03-07T00:48:36;1.80;;;1.70;;
44784;SDS011;30507;53.160;8.210;2024-03-07T00:51:01;1.63;;;1.53;;
44784;SDS011;30507;53.160;8.210;2024-03-07T00:53:26;2.30;;;2.10;;
44784;SDS011;30507;53.160;8.210;2024-03-07T00:55:51;2.10;;;1.50;;
44784;SDS011;30507;53.160;8.210;2024-03-07T00:58:17;1.85;;;1.67;;
44784;SDS011;30507;53.160;8.210;2024-03-07T01:00:43;1.57;;;1.47;;
44784;SDS011;30507;53.160;8.210;2024-03-07T01:03:11;1.50;;;1.40;;
44784;SDS011;30507;53.160;8.210;2024-03-07T01:05:38;1.88;;;1.30;;
44784;SDS011;30507;53.160;8.210;2024-03-07T01:08:04;1.23;;;1.10;;
44784;SDS011;30507;53.160;8.210;2024-03-07T01:10:30;1.75;;;1.65;;
44784;SDS011;30507;53.160;8.210;2024-03-07T01:12:55;1.93;;;1.33;;
44784;SDS011;30507;53.160;8.210;2024-03-07T01:15:25;1.52;;;1.42;;
44784;SDS011;30507;53.160;8.210;2024-03-07T01:17:50;3.70;;;1.93;;
44784;SDS011;30507;53.160;8.210;2024-03-07T01:20:16;1.48;;;1.38;;
44784;SDS011;30507;53.160;8.210;2024-03-07T01:22:41;1.40;;;1.30;;
44784;SDS011;30507;53.160;8.210;2024-03-07T01:25:06;3.43;;;1.80;;
44784;SDS011;30507;53.160;8.210;2024-03-07T01:27:32;1.60;;;1.50;;
44784;SDS011;30507;53.160;8.210;2024-03-07T01:29:57;1.45;;;1.35;;
44784;SDS011;30507;53.160;8.210;2024-03-07T01:32:22;1.73;;;1.63;;
44784;SDS011;30507;53.160;8.210;2024-03-07T01:34:48;1.37;;;1.27;;
44784;SDS011;30507;53.160;8.210;2024-03-07T01:37:13;1.30;;;1.20;;
44784;SDS011;30507;53.160;8.210;2024-03-07T01:39:38;1.42;;;1.33;;
44784;SDS011;30507;53.160;8.210;2024-03-07T01:42:03;1.50;;;1.40;;
44784;SDS011;30507;53.160;8.210;2024-03-07T01:44:29;1.75;;;1.63;;
44784;SDS011;30507;53.160;8.210;2024-03-07T01:46:56;2.13;;;1.38;;
44784;SDS011;30507;53.160;8.210;2024-03-07T01:49:21;1.77;;;1.60;;
44784;SDS011;30507;53.160;8.210;2024-03-07T01:51:47;1.55;;;1.45;;
44784;SDS011;30507;53.160;8.210;2024-03-07T01:54:13;1.52;;;1.42;;
44784;SDS011;30507;53.160;8.210;2024-03-07T01:56:38;1.27;;;1.17;;
44784;SDS011;30507;53.160;8.210;2024-03-07T01:59:04;1.90;;;1.73;;
44784;SDS011;30507;53.160;8.210;2024-03-07T02:01:30;1.42;;;1.33;;
44784;SDS011;30507;53.160;8.210;2024-03-07T02:03:55;1.67;;;1.57;;
44784;SDS011;30507;53.160;8.210;2024-03-07T02:06:20;1.73;;;1.63;;
44784;SDS011;30507;53.160;8.210;2024-03-07T02:08:46;1.50;;;1.30;;
44784;SDS011;30507;53.160;8.210;2024-03-07T02:11:12;2.00;;;1.80;;
44784;SDS011;30507;53.160;8.210;2024-03-07T02:13:38;1.88;;;1.77;;
44784;SDS011;30507;53.160;8.210;2024-03-07T02:16:03;1.77;;;1.67;;
44784;SDS011;30507;53.160;8.210;2024-03-07T02:18:28;2.03;;;1.67;;
44784;SDS011;30507;53.160;8.210;2024-03-07T02:20:54;1.80;;;1.70;;
44784;SDS011;30507;53.160;8.210;2024-03-07T02:23:20;1.92;;;1.83;;
44784;SDS011;30507;53.160;8.210;2024-03-07T02:25:45;1.45;;;1.35;;
44784;SDS011;30507;53.160;8.210;2024-03-07T02:28:11;1.60;;;1.50;;
44784;SDS011;30507;53.160;8.210;2024-03-07T02:30:36;1.70;;;1.60;;
44784;SDS011;30507;53.160;8.210;2024-03-07T02:33:01;3.13;;;2.10;;
44784;SDS011;30507;53.160;8.210;2024-03-07T02:35:34;1.58;;;1.48;;
44784;SDS011;30507;53.160;8.210;2024-03-07T02:38:00;1.42;;;1.33;;
44784;SDS011;30507;53.160;8.210;2024-03-07T02:40:25;1.70;;;1.60;;
44784;SDS011;30507;53.160;8.210;2024-03-07T02:42:50;1.92;;;1.58;;
44784;SDS011;30507;53.160;8.210;2024-03-07T02:45:16;1.95;;;1.85;;
44784;SDS011;30507;53.160;8.210;2024-03-07T02:47:41;1.50;;;1.40;;
44784;SDS011;30507;53.160;8.210;2024-03-07T02:50:09;1.30;;;1.20;;
44784;SDS011;30507;53.160;8.210;2024-03-07T02:52:34;1.75;;;1.65;;
44784;SDS011;30507;53.160;8.210;2024-03-07T02:54:59;2.10;;;2.00;;
44784;SDS011;30507;53.160;8.210;2024-03-07T02:57:24;1.50;;;1.40;;
44784;SDS011;30507;53.160;8.210;2024-03-07T02:59:50;2.25;;;1.70;;
44784;SDS011;30507;53.160;8.210;2024-03-07T03:02:15;3.05;;;1.60;;
44784;SDS011;30507;53.160;8.210;2024-03-07T03:04:40;1.52;;;1.42;;
44784;SDS011;30507;53.160;8.210;2024-03-07T03:07:05;1.65;;;1.55;;
44784;SDS011;30507;53.160;8.210;2024-03-07T03:09:31;2.10;;;2.00;;
44784;SDS011;30507;53.160;8.210;2024-03-07T03:11:58;2.08;;;1.92;;
44784;SDS011;30507;53.160;8.210;2024-03-07T03:14:23;3.23;;;2.27;;
44784;SDS011;30507;53.160;8.210;2024-03-07T03:16:48;1.55;;;1.45;;
44784;SDS011;30507;53.160;8.210;2024-03-07T03:19:14;1.47;;;1.37;;
44784;SDS011;30507;53.160;8.210;2024-03-07T03:21:39;1.88;;;1.77;;
44784;SDS011;30507;53.160;8.210;2024-03-07T03:24:05;1.80;;;1.70;;
44784;SDS011;30507;53.160;8.210;2024-03-07T03:26:32;2.22;;;2.13;;
44784;SDS011;30507;53.160;8.210;2024-03-07T03:28:57;1.67;;;1.57;;
44784;SDS011;30507;53.160;8.210;2024-03-07T03:31:22;2.65;;;2.45;;
44784;SDS011;30507;53.160;8.210;2024-03-07T03:33:47;2.10;;;2.00;;
44784;SDS011;30507;53.160;8.210;2024-03-07T03:36:13;2.65;;;2.45;;
44784;SDS011;30507;53.160;8.210;2024-03-07T03:38:39;2.13;;;2.03;;
44784;SDS011;30507;53.160;8.210;2024-03-07T03:41:04;2.08;;;1.90;;
44784;SDS011;30507;53.160;8.210;2024-03-07T03:43:29;2.05;;;1.95;;
44784;SDS011;30507;53.160;8.210;2024-03-07T03:45:55;2.50;;;2.30;;
44784;SDS011;30507;53.160;8.210;2024-03-07T03:48:21;2.05;;;1.95;;
44784;SDS011;30507;53.160;8.210;2024-03-07T03:50:46;2.28;;;2.08;;
44784;SDS011;30507;53.160;8.210;2024-03-07T03:53:12;2.20;;;2.00;;
44784;SDS011;30507;53.160;8.210;2024-03-07T03:55:37;2.90;;;1.97;;
44784;SDS011;30507;53.160;8.210;2024-03-07T03:58:02;2.10;;;2.00;;
44784;SDS011;30507;53.160;8.210;2024-03-07T04:00:27;2.40;;;2.20;;
44784;SDS011;30507;53.160;8.210;2024-03-07T04:02:53;2.42;;;2.22;;
44784;SDS011;30507;53.160;8.210;2024-03-07T04:05:19;1.87;;;1.77;;
44784;SDS011;30507;53.160;8.210;2024-03-07T04:07:45;2.42;;;2.22;;
44784;SDS011;30507;53.160;8.210;2024-03-07T04:10:10;2.20;;;2.00;;
44784;SDS011;30507;53.160;8.210;2024-03-07T04:12:36;2.33;;;2.13;;
44784;SDS011;30507;53.160;8.210;2024-03-07T04:15:05;2.70;;;2.47;;
44784;SDS011;30507;53.160;8.210;2024-03-07T04:17:32;1.92;;;1.83;;
44784;SDS011;30507;53.160;8.210;2024-03-07T04:19:58;2.10;;;1.90;;
44784;SDS011;30507;53.160;8.210;2024-03-07T04:22:24;2.30;;;2.07;;
44784;SDS011;30507;53.160;8.210;2024-03-07T04:24:49;2.30;;;1.90;;
44784;SDS011;30507;53.160;8.210;2024-03-07T04:27:18;2.92;;;2.72;;
44784;SDS011;30507;53.160;8.210;2024-03-07T04:29:44;2.63;;;2.42;;
44784;SDS011;30507;53.160;8.210;2024-03-07T04:32:09;1.80;;;1.70;;
44784;SDS011;30507;53.160;8.210;2024-03-07T04:34:34;2.20;;;2.00;;
44784;SDS011;30507;53.160;8.210;2024-03-07T04:37:01;2.45;;;2.25;;
44784;SDS011;30507;53.160;8.210;2024-03-07T04:39:27;2.30;;;2.20;;
44784;SDS011;30507;53.160;8.210;2024-03-07T04:42:01;2.50;;;2.05;;
44784;SDS011;30507;53.160;8.210;2024-03-07T04:44:30;2.58;;;2.35;;
44784;SDS011;30507;53.160;8.210;2024-03-07T04:46:55;2.67;;;2.47;;
44784;SDS011;30507;53.160;8.210;2024-03-07T04:49:22;2.10;;;1.90;;
44784;SDS011;30507;53.160;8.210;2024-03-07T04:51:48;2.20;;;2.00;;
44784;SDS011;30507;53.160;8.210;2024-03-07T04:54:13;1.75;;;1.65;;
44784;SDS011;30507;53.160;8.210;2024-03-07T04:56:38;2.15;;;2.05;;
44784;SDS011;30507;53.160;8.210;2024-03-07T04:59:04;2.73;;;2.53;;
44784;SDS011;30507;53.160;8.210;2024-03-07T05:01:29;1.80;;;1.70;;
44784;SDS011;30507;53.160;8.210;2024-03-07T05:03:56;2.65;;;2.40;;
44784;SDS011;30507;53.160;8.210;2024-03-07T05:06:21;2.50;;;2.30;;
44784;SDS011;30507;53.160;8.210;2024-03-07T05:08:46;2.60;;;2.20;;
44784;SDS011;30507;53.160;8.210;2024-03-07T05:11:11;2.07;;;1.90;;
44784;SDS011;30507;53.160;8.210;2024-03-07T05:13:36;2.67;;;2.47;;
44784;SDS011;30507;53.160;8.210;2024-03-07T05:16:02;3.00;;;2.67;;
44784;SDS011;30507;53.160;8.210;2024-03-07T05:18:27;2.70;;;2.50;;
44784;SDS011;30507;53.160;8.210;2024-03-07T05:20:52;2.83;;;2.43;;
44784;SDS011;30507;53.160;8.210;2024-03-07T05:23:19;2.05;;;1.88;;
44784;SDS011;30507;53.160;8.210;2024-03-07T05:25:44;2.38;;;2.17;;
44784;SDS011;30507;53.160;8.210;2024-03-07T05:28:10;2.10;;;1.90;;
44784;SDS011;30507;53.160;8.210;2024-03-07T05:30:36;2.22;;;2.05;;
44784;SDS011;30507;53.160;8.210;2024-03-07T05:33:01;2.42;;;2.22;;
44784;SDS011;30507;53.160;8.210;2024-03-07T05:35:27;2.20;;;2.03;;
44784;SDS011;30507;53.160;8.210;2024-03-07T05:37:54;2.78;;;2.58;;
44784;SDS011;30507;53.160;8.210;2024-03-07T05:40:21;1.75;;;1.65;;
44784;SDS011;30507;53.160;8.210;2024-03-07T05:42:46;2.73;;;2.47;;
44784;SDS011;30507;53.160;8.210;2024-03-07T05:45:11;2.93;;;2.73;;
44784;SDS011;30507;53.160;8.210;2024-03-07T05:47:38;2.38;;;2.17;;
44784;SDS011;30507;53.160;8.210;2024-03-07T05:50:03;2.95;;;2.75;;
44784;SDS011;30507;53.160;8.210;2024-03-07T05:52:29;3.42;;;3.13;;
44784;SDS011;30507;53.160;8.210;2024-03-07T05:54:54;3.15;;;2.63;;
44784;SDS011;30507;53.160;8.210;2024-03-07T05:57:19;3.95;;;2.67;;
44784;SDS011;30507;53.160;8.210;2024-03-07T05:59:44;2.40;;;2.20;;
44784;SDS011;30507;53.160;8.210;2024-03-07T06:02:11;2.80;;;2.60;;
44784;SDS011;30507;53.160;8.210;2024-03-07T06:04:40;2.75;;;2.55;;
44784;SDS011;30507;53.160;8.210;2024-03-07T06:07:05;2.50;;;2.30;;
44784;SDS011;30507;53.160;8.210;2024-03-07T06:09:30;2.78;;;2.58;;
44784;SDS011;30507;53.160;8.210;2024-03-07T06:11:56;2.90;;;2.55;;
44784;SDS011;30507;53.160;8.210;2024-03-07T06:14:21;3.57;;;2.70;;
44784;SDS011;30507;53.160;8.210;2024-03-07T06:16:47;3.08;;;2.58;;
44784;SDS011;30507;53.160;8.210;2024-03-07T06:19:13;8.40;;;2.93;;
44784;SDS011;30507;53.160;8.210;2024-03-07T06:21:39;3.50;;;2.23;;
44784;SDS011;30507;53.160;8.210;2024-03-07T06:24:04;3.20;;;2.90;;
44784;SDS011;30507;53.160;8.210;2024-03-07T06:26:30;3.33;;;2.72;;
44784;SDS011;30507;53.160;8.210;2024-03-07T06:29:05;3.67;;;2.92;;
44784;SDS011;30507;53.160;8.210;2024-03-07T06:31:30;4.95;;;3.70;;
44784;SDS011;30507;53.160;8.210;2024-03-07T06:33:55;6.25;;;5.20;;
44784;SDS011;30507;53.160;8.210;2024-03-07T06:36:21;5.93;;;5.22;;
44784;SDS011;30507;53.160;8.210;2024-03-07T06:38:46;8.88;;;6.03;;
44784;SDS011;30507;53.160;8.210;2024-03-07T06:41:12;7.93;;;6.32;;
44784;SDS011;30507;53.160;8.210;2024-03-07T06:43:37;6.20;;;5.10;;
44784;SDS011;30507;53.160;8.210;2024-03-07T06:46:02;9.38;;;5.75;;
44784;SDS011;30507;53.160;8.210;2024-03-07T06:48:27;6.75;;;6.05;;
44784;SDS011;30507;53.160;8.210;2024-03-07T06:50:53;6.40;;;5.18;;
44784;SDS011;30507;53.160;8.210;2024-03-07T06:53:18;6.53;;;5.20;;
44784;SDS011;30507;53.160;8.210;2024-03-07T06:55:44;7.65;;;5.60;;
44784;SDS011;30507;53.160;8.210;2024-03-07T06:58:09;5.97;;;4.97;;
44784;SDS011;30507;53.160;8.210;2024-03-07T07:00:35;5.03;;;4.53;;
44784;SDS011;30507;53.160;8.210;2024-03-07T07:03:01;7.03;;;5.72;;
44784;SDS011;30507;53.160;8.210;2024-03-07T07:05:28;6.25;;;4.30;;
44784;SDS011;30507;53.160;8.210;2024-03-07T07:07:53;5.28;;;4.78;;
44784;SDS011;30507;53.160;8.210;2024-03-07T07:10:19;4.57;;;3.97;;
44784;SDS011;30507;53.160;8.210;2024-03-07T07:12:48;11.43;;;5.63;;
44784;SDS011;30507;53.160;8.210;2024-03-07T07:15:14;5.93;;;4.73;;
44784;SDS011;30507;53.160;8.210;2024-03-07T07:17:40;5.57;;;4.15;;
44784;SDS011;30507;53.160;8.210;2024-03-07T07:20:05;6.00;;;4.25;;
44784;SDS011;30507;53.160;8.210;2024-03-07T07:22:35;5.93;;;4.53;;
44784;SDS011;30507;53.160;8.210;2024-03-07T07:25:00;5.53;;;4.50;;
44784;SDS011;30507;53.160;8.210;2024-03-07T07:27:25;5.32;;;4.80;;
44784;SDS011;30507;53.160;8.210;2024-03-07T07:29:50;7.45;;;4.93;;
44784;SDS011;30507;53.160;8.210;2024-03-07T07:32:15;7.80;;;4.60;;
44784;SDS011;30507;53.160;8.210;2024-03-07T07:34:41;7.95;;;4.53;;
44784;SDS011;30507;53.160;8.210;2024-03-07T07:37:07;9.85;;;5.10;;
44784;SDS011;30507;53.160;8.210;2024-03-07T07:39:34;6.47;;;5.15;;
44784;SDS011;30507;53.160;8.210;2024-03-07T07:41:59;7.45;;;4.70;;
44784;SDS011;30507;53.160;8.210;2024-03-07T07:44:24;6.70;;;4.63;;
44784;SDS011;30507;53.160;8.210;2024-03-07T07:46:49;9.83;;;5.00;;
44784;SDS011;30507;53.160;8.210;2024-03-07T07:49:14;7.03;;;5.47;;
44784;SDS011;30507;53.160;8.210;2024-03-07T07:51:40;7.07;;;4.28;;
44784;SDS011;30507;53.160;8.210;2024-03-07T07:54:06;6.68;;;4.72;;
44784;SDS011;30507;53.160;8.210;2024-03-07T07:56:33;6.80;;;4.80;;
44784;SDS011;30507;53.160;8.210;2024-03-07T07:58:58;9.10;;;5.03;;
44784;SDS011;30507;53.160;8.210;2024-03-07T08:01:24;6.33;;;4.30;;
44784;SDS011;30507;53.160;8.210;2024-03-07T08:03:49;7.32;;;4.68;;
44784;SDS011;30507;53.160;8.210;2024-03-07T08:06:14;9.47;;;5.73;;
44784;SDS011;30507;53.160;8.210;2024-03-07T08:08:39;4.80;;;3.57;;
44784;SDS011;30507;53.160;8.210;2024-03-07T08:11:04;7.13;;;4.50;;
44784;SDS011;30507;53.160;8.210;2024-03-07T08:13:29;7.17;;;4.93;;
44784;SDS011;30507;53.160;8.210;2024-03-07T08:15:55;7.97;;;5.07;;
44784;SDS011;30507;53.160;8.210;2024-03-07T08:18:20;7.00;;;4.40;;
44784;SDS011;30507;53.160;8.210;2024-03-07T08:20:45;9.33;;;4.47;;
44784;SDS011;30507;53.160;8.210;2024-03-07T08:23:10;10.10;;;4.82;;
44784;SDS011;30507;53.160;8.210;2024-03-07T08:25:37;6.65;;;3.80;;
44784;SDS011;30507;53.160;8.210;2024-03-07T08:28:04;6.38;;;4.38;;
44784;SDS011;30507;53.160;8.210;2024-03-07T08:30:30;6.82;;;4.07;;
44784;SDS011;30507;53.160;8.210;2024-03-07T08:32:55;6.50;;;3.72;;
44784;SDS011;30507;53.160;8.210;2024-03-07T08:35:21;5.13;;;3.53;;
44784;SDS011;30507;53.160;8.210;2024-03-07T08:37:48;6.05;;;3.97;;
44784;SDS011;30507;53.160;8.210;2024-03-07T08:40:18;6.05;;;3.95;;
44784;SDS011;30507;53.160;8.210;2024-03-07T08:45:11;7.72;;;4.13;;
44784;SDS011;30507;53.160;8.210;2024-03-07T08:47:36;5.78;;;4.18;;
44784;SDS011;30507;53.160;8.210;2024-03-07T08:50:02;5.10;;;3.58;;
44784;SDS011;30507;53.160;8.210;2024-03-07T08:52:34;4.82;;;3.30;;
44784;SDS011;30507;53.160;8.210;2024-03-07T08:55:01;6.72;;;4.43;;
44784;SDS011;30507;53.160;8.210;2024-03-07T08:57:27;5.60;;;3.72;;
44784;SDS011;30507;53.160;8.210;2024-03-07T08:59:52;4.15;;;3.00;;
44784;SDS011;30507;53.160;8.210;2024-03-07T09:02:17;4.10;;;2.93;;
44784;SDS011;30507;53.160;8.210;2024-03-07T09:04:42;4.90;;;3.43;;
44784;SDS011;30507;53.160;8.210;2024-03-07T09:07:07;6.53;;;3.85;;
44784;SDS011;30507;53.160;8.210;2024-03-07T09:09:33;5.67;;;3.63;;
44784;SDS011;30507;53.160;8.210;2024-03-07T09:11:58;5.70;;;4.15;;
44784;SDS011;30507;53.160;8.210;2024-03-07T09:14:24;4.57;;;3.20;;
44784;SDS011;30507;53.160;8.210;2024-03-07T09:16:49;4.10;;;3.15;;
44784;SDS011;30507;53.160;8.210;2024-03-07T09:19:14;4.57;;;4.03;;
44784;SDS011;30507;53.160;8.210;2024-03-07T09:21:44;6.15;;;2.90;;
44784;SDS011;30507;53.160;8.210;2024-03-07T09:24:11;3.40;;;2.97;;
44784;SDS011;30507;53.160;8.210;2024-03-07T09:26:36;6.22;;;3.08;;
44784;SDS011;30507;53.160;8.210;2024-03-07T09:29:01;4.35;;;3.15;;
44784;SDS011;30507;53.160;8.210;2024-03-07T09:31:30;3.17;;;2.88;;
44784;SDS011;30507;53.160;8.210;2024-03-07T09:33:56;3.10;;;2.80;;
44784;SDS011;30507;53.160;8.210;2024-03-07T09:36:23;3.58;;;2.70;;
44784;SDS011;30507;53.160;8.210;2024-03-07T09:38:48;4.68;;;4.07;;
44784;SDS011;30507;53.160;8.210;2024-03-07T09:41:14;3.50;;;3.20;;
44784;SDS011;30507;53.160;8.210;2024-03-07T09:43:40;4.65;;;3.45;;
44784;SDS011;30507;53.160;8.210;2024-03-07T09:46:08;3.13;;;2.83;;
44784;SDS011;30507;53.160;8.210;2024-03-07T09:48:35;3.13;;;2.65;;
44784;SDS011;30507;53.160;8.210;2024-03-07T09:51:00;3.50;;;2.80;;
44784;SDS011;30507;53.160;8.210;2024-03-07T09:53:27;3.42;;;2.88;;
44784;SDS011;30507;53.160;8.210;2024-03-07T09:55:53;2.93;;;2.43;;
44784;SDS011;30507;53.160;8.210;2024-03-07T09:58:18;4.35;;;2.83;;
44784;SDS011;30507;53.160;8.210;2024-03-07T10:00:47;2.97;;;2.78;;
44784;SDS011;30507;53.160;8.210;2024-03-07T10:03:15;4.28;;;2.72;;
44784;SDS011;30507;53.160;8.210;2024-03-07T10:05:42;3.42;;;2.67;;
44784;SDS011;30507;53.160;8.210;2024-03-07T10:08:07;3.90;;;3.33;;
44784;SDS011;30507;53.160;8.210;2024-03-07T10:10:32;4.37;;;3.03;;
44784;SDS011;30507;53.160;8.210;2024-03-07T10:12:58;3.42;;;3.13;;
44784;SDS011;30507;53.160;8.210;2024-03-07T10:15:30;3.42;;;3.13;;
44784;SDS011;30507;53.160;8.210;2024-03-07T10:17:55;3.55;;;2.80;;
44784;SDS011;30507;53.160;8.210;2024-03-07T10:20:20;3.70;;;3.40;;
44784;SDS011;30507;53.160;8.210;2024-03-07T10:22:47;2.92;;;2.72;;
44784;SDS011;30507;53.160;8.210;2024-03-07T10:25:13;2.88;;;2.63;;
44784;SDS011;30507;53.160;8.210;2024-03-07T10:27:42;4.43;;;3.20;;
44784;SDS011;30507;53.160;8.210;2024-03-07T10:30:09;3.05;;;2.75;;
44784;SDS011;30507;53.160;8.210;2024-03-07T10:32:34;3.38;;;3.00;;
44784;SDS011;30507;53.160;8.210;2024-03-07T10:35:00;2.70;;;2.50;;
44784;SDS011;30507;53.160;8.210;2024-03-07T10:37:28;3.00;;;2.80;;
44784;SDS011;30507;53.160;8.210;2024-03-07T10:39:53;3.20;;;2.90;;
44784;SDS011;30507;53.160;8.210;2024-03-07T10:42:19;2.95;;;2.47;;
44784;SDS011;30507;53.160;8.210;2024-03-07T10:44:45;2.78;;;2.53;;
44784;SDS011;30507;53.160;8.210;2024-03-07T10:47:15;5.00;;;3.08;;
44784;SDS011;30507;53.160;8.210;2024-03-07T10:49:42;2.75;;;2.55;;
44784;SDS011;30507;53.160;8.210;2024-03-07T10:52:17;3.00;;;2.70;;
44784;SDS011;30507;53.160;8.210;2024-03-07T10:55:08;3.45;;;3.17;;
44784;SDS011;30507;53.160;8.210;2024-03-07T10:57:41;3.08;;;2.80;;
44784;SDS011;30507;53.160;8.210;2024-03-07T11:00:10;2.75;;;2.55;;
44784;SDS011;30507;53.160;8.210;2024-03-07T11:02:54;2.90;;;2.60;;
44784;SDS011;30507;53.160;8.210;2024-03-07T11:05:20;2.65;;;2.45;;
44784;SDS011;30507;53.160;8.210;2024-03-07T11:07:49;2.60;;;2.40;;
44784;SDS011;30507;53.160;8.210;2024-03-07T11:10:14;2.95;;;2.45;;
44784;SDS011;30507;53.160;8.210;2024-03-07T11:12:42;3.45;;;2.88;;
44784;SDS011;30507;53.160;8.210;2024-03-07T11:15:08;3.28;;;2.83;;
44784;SDS011;30507;53.160;8.210;2024-03-07T11:17:39;2.60;;;2.40;;
44784;SDS011;30507;53.160;8.210;2024-03-07T11:20:21;3.17;;;2.88;;
44784;SDS011;30507;53.160;8.210;2024-03-07T11:22:46;2.60;;;2.40;;
44784;SDS011;30507;53.160;8.210;2024-03-07T11:25:11;3.67;;;2.83;;
44784;SDS011;30507;53.160;8.210;2024-03-07T11:27:37;3.42;;;3.03;;
44784;SDS011;30507;53.160;8.210;2024-03-07T11:30:07;2.75;;;2.55;;
44784;SDS011;30507;53.160;8.210;2024-03-07T11:32:39;2.75;;;2.55;;
44784;SDS011;30507;53.160;8.210;2024-03-07T11:35:11;2.80;;;2.40;;
44784;SDS011;30507;53.160;8.210;2024-03-07T11:37:45;3.10;;;2.58;;
44784;SDS011;30507;53.160;8.210;2024-03-07T11:40:13;2.55;;;2.33;;
44784;SDS011;30507;53.160;8.210;2024-03-07T11:42:58;2.72;;;2.53;;
44784;SDS011;30507;53.160;8.210;2024-03-07T11:45:25;3.85;;;2.92;;
44784;SDS011;30507;53.160;8.210;2024-03-07T11:47:51;2.80;;;2.60;;
44784;SDS011;30507;53.160;8.210;2024-03-07T11:50:22;3.17;;;2.83;;
44784;SDS011;30507;53.160;8.210;2024-03-07T11:52:50;3.33;;;2.97;;
44784;SDS011;30507;53.160;8.210;2024-03-07T11:55:15;2.83;;;2.58;;
44784;SDS011;30507;53.160;8.210;2024-03-07T11:57:41;3.28;;;2.97;;
44784;SDS011;30507;53.160;8.210;2024-03-07T12:00:09;3.22;;;2.92;;
44784;SDS011;30507;53.160;8.210;2024-03-07T12:02:36;3.15;;;2.95;;
44784;SDS011;30507;53.160;8.210;2024-03-07T12:05:02;3.40;;;3.10;;
44784;SDS011;30507;53.160;8.210;2024-03-07T12:07:30;2.55;;;2.35;;
44784;SDS011;30507;53.160;8.210;2024-03-07T12:09:55;2.40;;;2.20;;
44784;SDS011;30507;53.160;8.210;2024-03-07T12:12:21;2.92;;;2.70;;
44784;SDS011;30507;53.160;8.210;2024-03-07T12:14:49;3.05;;;2.78;;
44784;SDS011;30507;53.160;8.210;2024-03-07T12:17:17;3.13;;;2.83;;
44784;SDS011;30507;53.160;8.210;2024-03-07T12:19:42;2.70;;;2.50;;
44784;SDS011;30507;53.160;8.210;2024-03-07T12:22:08;3.05;;;2.75;;
44784;SDS011;30507;53.160;8.210;2024-03-07T12:24:47;2.47;;;2.28;;
44784;SDS011;30507;53.160;8.210;2024-03-07T12:27:12;2.80;;;2.60;;
44784;SDS011;30507;53.160;8.210;2024-03-07T12:29:41;3.03;;;2.80;;
44784;SDS011;30507;53.160;8.210;2024-03-07T12:32:07;2.80;;;2.60;;
44784;SDS011;30507;53.160;8.210;2024-03-07T12:34:33;3.15;;;2.85;;
44784;SDS011;30507;53.160;8.210;2024-03-07T12:37:02;2.63;;;2.42;;
44784;SDS011;30507;53.160;8.210;2024-03-07T12:39:28;3.15;;;2.30;;
44784;SDS011;30507;53.160;8.210;2024-03-07T12:42:00;3.20;;;2.90;;
44784;SDS011;30507;53.160;8.210;2024-03-07T12:44:26;2.90;;;2.70;;
44784;SDS011;30507;53.160;8.210;2024-03-07T12:46:52;2.45;;;2.25;;
44784;SDS011;30507;53.160;8.210;2024-03-07T12:49:23;2.65;;;2.20;;
44784;SDS011;30507;53.160;8.210;2024-03-07T12:51:52;2.70;;;2.42;;
44784;SDS011;30507;53.160;8.210;2024-03-07T12:54:18;3.38;;;3.15;;
44784;SDS011;30507;53.160;8.210;2024-03-07T12:56:43;2.60;;;2.40;;
44784;SDS011;30507;53.160;8.210;2024-03-07T12:59:09;3.60;;;3.30;;
44784;SDS011;30507;53.160;8.210;2024-03-07T13:01:37;3.75;;;3.40;;
44784;SDS011;30507;53.160;8.210;2024-03-07T13:04:05;3.13;;;2.80;;
44784;SDS011;30507;53.160;8.210;2024-03-07T13:06:32;2.75;;;2.55;;
44784;SDS011;30507;53.160;8.210;2024-03-07T13:08:58;3.60;;;3.30;;
44784;SDS011;30507;53.160;8.210;2024-03-07T13:11:23;3.07;;;2.87;;
44784;SDS011;30507;53.160;8.210;2024-03-07T13:13:48;2.73;;;2.53;;
44784;SDS011;30507;53.160;8.210;2024-03-07T13:16:13;3.77;;;3.30;;
44784;SDS011;30507;53.160;8.210;2024-03-07T13:18:39;2.70;;;2.50;;
44784;SDS011;30507;53.160;8.210;2024-03-07T13:21:04;3.50;;;3.20;;
44784;SDS011;30507;53.160;8.210;2024-03-07T13:23:31;2.83;;;2.63;;
44784;SDS011;30507;53.160;8.210;2024-03-07T13:25:57;2.63;;;2.42;;
44784;SDS011;30507;53.160;8.210;2024-03-07T13:28:22;2.65;;;2.45;;
44784;SDS011;30507;53.160;8.210;2024-03-07T13:30:51;4.47;;;3.67;;
44784;SDS011;30507;53.160;8.210;2024-03-07T13:35:44;2.70;;;2.50;;
44784;SDS011;30507;53.160;8.210;2024-03-07T13:38:10;2.50;;;2.30;;
44784;SDS011;30507;53.160;8.210;2024-03-07T13:40:35;3.47;;;3.17;;
44784;SDS011;30507;53.160;8.210;2024-03-07T13:43:03;2.95;;;2.75;;
44784;SDS011;30507;53.160;8.210;2024-03-07T13:45:29;3.20;;;2.97;;
44784;SDS011;30507;53.160;8.210;2024-03-07T13:47:56;2.80;;;2.60;;
44784;SDS011;30507;53.160;8.210;2024-03-07T13:50:23;3.17;;;2.88;;
44784;SDS011;30507;53.160;8.210;2024-03-07T13:52:49;2.50;;;2.30;;
44784;SDS011;30507;53.160;8.210;2024-03-07T13:58:09;3.25;;;3.05;;
44784;SDS011;30507;53.160;8.210;2024-03-07T14:00:45;3.53;;;3.22;;
44784;SDS011;30507;53.160;8.210;2024-03-07T14:04:18;2.47;;;2.28;;
44784;SDS011;30507;53.160;8.210;2024-03-07T14:06:08;3.13;;;2.83;;
44784;SDS011;30507;53.160;8.210;2024-03-07T14:08:45;2.75;;;2.55;;
44784;SDS011;30507;53.160;8.210;2024-03-07T14:17:09;2.90;;;2.70;;
44784;SDS011;30507;53.160;8.210;2024-03-07T14:22:27;2.50;;;2.30;;
44784;SDS011;30507;53.160;8.210;2024-03-07T14:27:36;2.60;;;2.40;;
44784;SDS011;30507;53.160;8.210;2024-03-07T14:32:46;3.20;;;3.00;;
44784;SDS011;30507;53.160;8.210;2024-03-07T14:35:22;2.38;;;2.17;;
44784;SDS011;30507;53.160;8.210;2024-03-07T14:37:55;2.92;;;2.72;;
44784;SDS011;30507;53.160;8.210;2024-03-07T14:40:21;2.83;;;2.63;;
44784;SDS011;30507;53.160;8.210;2024-03-07T14:42:47;2.60;;;2.40;;
44784;SDS011;30507;53.160;8.210;2024-03-07T14:45:22;2.72;;;2.53;;
44784;SDS011;30507;53.160;8.210;2024-03-07T14:47:49;2.70;;;2.50;;
44784;SDS011;30507;53.160;8.210;2024-03-07T14:50:15;2.97;;;2.78;;
44784;SDS011;30507;53.160;8.210;2024-03-07T14:52:41;2.50;;;2.30;;
44784;SDS011;30507;53.160;8.210;2024-03-07T14:55:07;2.65;;;2.45;;
44784;SDS011;30507;53.160;8.210;2024-03-07T14:57:33;2.88;;;2.67;;
44784;SDS011;30507;53.160;8.210;2024-03-07T14:59:58;3.05;;;2.85;;
44784;SDS011;30507;53.160;8.210;2024-03-07T15:02:23;2.85;;;2.65;;
44784;SDS011;30507;53.160;8.210;2024-03-07T15:04:48;2.42;;;2.30;;